Time;durP1;ratioP1;P1;durP2;ratioP2;P2;SDS_P1;SDS_P2;PMS_P1;PMS_P2;Temp;Humidity;BMP_temperature;BMP_pressure;BME280_temperature;BME280_humidity;BME280_pressure;Samples;Min_cycle;Max_cycle;Signal;HPM_P1;HPM_P2
2022/01/22 00:00:22;;;;;;;0.00;0.00;;;;;;;4.29;100.00;101814.13;5013310;28;20046;-78
2022/01/22 00:02:56;;;;;;;0.00;0.00;;;;;;;4.29;100.00;101804.16;5013859;28;20517;-77
2022/01/22 00:05:31;;;;;;;0.00;0.00;;;;;;;4.27;100.00;101806.25;5025375;28;20136;-78
2022/01/22 00:08:05;;;;;;;0.00;0.00;;;;;;;4.23;100.00;101805.84;5017251;28;20049;-77
2022/01/22 00:10:41;;;;;;;0.00;0.00;;;;;;;4.22;100.00;101800.66;5019297;28;20561;-77
2022/01/22 00:16:05;;;;;;;0.00;0.00;;;;;;;4.21;100.00;101809.78;5017185;28;20042;-78
2022/01/22 00:18:33;;;;;;;0.00;0.00;;;;;;;4.21;100.00;101816.00;5012721;28;20523;-79
2022/01/22 00:21:08;;;;;;;0.00;0.00;;;;;;;4.20;100.00;101821.63;5022410;28;20069;-78
2022/01/22 00:23:38;;;;;;;0.00;0.00;;;;;;;4.22;100.00;101822.22;5015299;28;20061;-77
2022/01/22 00:26:07;;;;;;;0.00;0.00;;;;;;;4.15;100.00;101816.00;5025475;28;20430;-78
2022/01/22 00:28:35;;;;;;;0.00;0.00;;;;;;;4.18;100.00;101824.50;5020153;28;20549;-77
2022/01/22 00:31:08;;;;;;;0.00;0.00;;;;;;;4.19;100.00;101822.66;5033866;28;20057;-78
2022/01/22 00:33:41;;;;;;;0.00;0.00;;;;;;;4.20;100.00;101817.03;5021551;28;20048;-77
2022/01/22 00:36:16;;;;;;;0.00;0.00;;;;;;;4.10;100.00;101797.75;5018175;28;20049;-77
2022/01/22 00:38:49;;;;;;;0.00;0.00;;;;;;;4.15;100.00;101819.53;5016548;28;20057;-76
2022/01/22 00:41:22;;;;;;;0.00;0.00;;;;;;;4.09;100.00;101815.81;5022061;28;20045;-78
2022/01/22 00:43:56;;;;;;;0.00;0.00;;;;;;;4.04;100.00;101818.28;5019461;28;20049;-79
2022/01/22 00:46:30;;;;;;;0.00;0.00;;;;;;;4.00;100.00;101808.97;5025782;28;20072;-78
2022/01/22 00:48:58;;;;;;;0.00;0.00;;;;;;;3.98;100.00;101810.19;5026510;28;20057;-78
2022/01/22 00:51:33;;;;;;;0.00;0.00;;;;;;;3.98;100.00;101818.28;5023006;28;20053;-77
2022/01/22 00:54:01;;;;;;;0.00;0.00;;;;;;;3.98;100.00;101808.34;5021586;28;20057;-79
2022/01/22 00:56:35;;;;;;;0.00;0.00;;;;;;;3.99;100.00;101819.94;5022415;28;20049;-76
2022/01/22 00:59:03;;;;;;;0.00;0.00;;;;;;;4.02;100.00;101812.28;5024883;28;20060;-78
2022/01/22 01:01:32;;;;;;;0.00;0.00;;;;;;;4.02;100.00;101808.75;5023483;28;20061;-77
2022/01/22 01:04:08;;;;;;;0.00;0.00;;;;;;;3.97;100.00;101814.78;5024220;28;20045;-77
2022/01/22 01:06:43;;;;;;;0.00;0.00;;;;;;;3.89;100.00;101815.84;5024704;28;20444;-76
2022/01/22 01:09:17;;;;;;;0.00;0.00;;;;;;;3.85;100.00;101825.34;5024959;28;20045;-77
2022/01/22 01:11:50;;;;;;;0.00;0.00;;;;;;;3.94;100.00;101834.03;5026689;28;20041;-78
2022/01/22 01:14:29;;;;;;;0.00;0.00;;;;;;;3.92;100.00;101830.72;5024031;28;20072;-76
2022/01/22 01:17:11;;;;;;;0.00;0.00;;;;;;;3.87;100.00;101835.91;5021921;28;20061;-78
2022/01/22 01:33:52;;;;;;;0.00;0.00;;;;;;;3.64;100.00;101845.19;5021088;28;20076;-77
2022/01/22 01:36:25;;;;;;;0.00;0.00;;;;;;;3.70;100.00;101857.00;5019587;28;20057;-77
2022/01/22 01:38:58;;;;;;;0.00;0.00;;;;;;;3.65;100.00;101852.25;5014369;28;20405;-77
2022/01/22 01:41:39;;;;;;;0.00;0.00;;;;;;;3.64;100.00;101855.97;5023943;28;20054;-79
2022/01/22 01:44:08;;;;;;;0.00;0.00;;;;;;;3.60;100.00;101851.22;5026513;28;20329;-78
2022/01/22 01:47:06;;;;;;;0.00;0.00;;;;;;;3.65;100.00;101868.41;5032289;28;20057;-77
2022/01/22 01:49:40;;;;;;;0.00;0.00;;;;;;;3.61;100.00;101855.56;5023741;28;20053;-77
2022/01/22 01:52:38;;;;;;;0.00;0.00;;;;;;;3.54;100.00;101867.13;5024736;28;20057;-78
2022/01/22 01:55:17;;;;;;;0.00;0.00;;;;;;;3.58;100.00;101868.38;5021739;28;20057;-76
2022/01/22 01:57:46;;;;;;;0.00;0.00;;;;;;;3.55;100.00;101870.66;5023171;28;20049;-76
2022/01/22 02:00:22;;;;;;;0.00;0.00;;;;;;;3.49;100.00;101874.16;5025734;28;20049;-78
2022/01/22 02:02:58;;;;;;;0.00;0.00;;;;;;;3.45;100.00;101875.59;5019656;28;20051;-77
2022/01/22 02:05:31;;;;;;;0.00;0.00;;;;;;;3.53;100.00;101887.00;5024979;28;20402;-79
2022/01/22 02:08:06;;;;;;;0.00;0.00;;;;;;;3.39;100.00;101883.44;5018715;28;20417;-77
2022/01/22 02:10:57;;;;;;;0.00;0.00;;;;;;;3.46;100.00;101888.84;5018290;28;20037;-77
2022/01/22 02:14:06;;;;;;;0.00;0.00;;;;;;;3.47;100.00;101901.28;5015727;28;20054;-79
2022/01/22 02:25:34;;;;;;;0.00;0.00;;;;;;;3.49;100.00;101912.66;5016809;28;20053;-77
2022/01/22 02:28:07;;;;;;;0.00;0.00;;;;;;;3.45;100.00;101903.31;5029865;28;20041;-77
2022/01/22 02:30:45;;;;;;;0.00;0.00;;;;;;;3.45;100.00;101910.59;5041511;28;20497;-79
2022/01/22 02:33:48;;;;;;;0.00;0.00;;;;;;;3.39;100.00;101922.97;5017897;28;20548;-77
2022/01/22 02:36:26;;;;;;;0.00;0.00;;;;;;;3.45;100.00;101918.66;5020394;28;20404;-77
2022/01/22 02:39:03;;;;;;;0.00;0.00;;;;;;;3.47;100.00;101925.50;5015899;28;20053;-77
2022/01/22 02:41:42;;;;;;;0.00;0.00;;;;;;;3.52;100.00;101936.50;5023038;28;20045;-79
2022/01/22 02:44:14;;;;;;;0.00;0.00;;;;;;;3.57;100.00;101949.34;5010209;28;20061;-77
2022/01/22 02:46:43;;;;;;;0.00;0.00;;;;;;;3.62;100.00;101948.72;5024156;28;20038;-77
2022/01/22 02:49:16;;;;;;;0.00;0.00;;;;;;;3.58;100.00;101951.00;5016880;28;20050;-78
2022/01/22 02:51:50;;;;;;;0.00;0.00;;;;;;;3.62;100.00;101963.03;5023840;28;20045;-78
2022/01/22 02:54:24;;;;;;;0.00;0.00;;;;;;;3.61;100.00;101955.97;5019891;28;20053;-78
2022/01/22 02:56:58;;;;;;;0.00;0.00;;;;;;;3.68;100.00;101954.13;5022064;28;20052;-77
2022/01/22 02:59:31;;;;;;;0.00;0.00;;;;;;;3.70;100.00;101965.56;5023708;28;20049;-77
2022/01/22 03:02:05;;;;;;;0.00;0.00;;;;;;;3.67;100.00;101957.84;5017245;28;20072;-79
2022/01/22 03:04:33;;;;;;;0.00;0.00;;;;;;;3.65;100.00;101949.16;5024721;28;20124;-79
2022/01/22 03:07:07;;;;;;;0.00;0.00;;;;;;;3.76;100.00;101969.28;5022112;28;20049;-78
2022/01/22 03:09:41;;;;;;;0.00;0.00;;;;;;;3.70;100.00;101962.00;5040543;28;20049;-77
2022/01/22 03:12:30;;;;;;;0.00;0.00;;;;;;;3.63;100.00;101969.25;5020625;28;20058;-77
2022/01/22 03:18:10;;;;;;;0.00;0.00;;;;;;;3.57;100.00;101960.94;5006050;28;20050;-77
2022/01/22 03:21:00;;;;;;;0.00;0.00;;;;;;;3.66;100.00;101958.91;5017162;28;20044;-78
2022/01/22 03:29:19;;;;;;;0.00;0.00;;;;;;;3.67;100.00;101955.16;5018885;28;20050;-77
2022/01/22 03:31:53;;;;;;;0.00;0.00;;;;;;;3.70;100.00;101967.41;5020499;28;20041;-78
2022/01/22 03:34:28;;;;;;;0.00;0.00;;;;;;;3.70;100.00;101967.41;5033870;28;20058;-78
2022/01/22 03:37:02;;;;;;;0.00;0.00;;;;;;;3.72;100.00;101979.63;5019012;28;20052;-77
2022/01/22 03:39:35;;;;;;;0.00;0.00;;;;;;;3.72;100.00;101976.13;5015919;28;20049;-77
2022/01/22 03:42:10;;;;;;;0.00;0.00;;;;;;;3.80;100.00;101986.69;5020564;28;20056;-79
2022/01/22 03:44:43;;;;;;;0.00;0.00;;;;;;;3.76;100.00;101985.44;5019569;28;20075;-77
2022/01/22 03:47:12;;;;;;;0.00;0.00;;;;;;;3.72;100.00;101989.56;5017181;28;20046;-78
2022/01/22 03:49:40;;;;;;;0.00;0.00;;;;;;;3.71;100.00;101977.97;5021377;28;20050;-79
2022/01/22 03:52:17;;;;;;;0.00;0.00;;;;;;;3.76;100.00;101993.53;5016948;28;20064;-77
2022/01/22 03:54:46;;;;;;;0.00;0.00;;;;;;;3.69;100.00;101995.38;5023501;28;20053;-77
2022/01/22 03:57:42;;;;;;;0.00;0.00;;;;;;;3.73;100.00;102002.84;5028722;28;20046;-78
2022/01/22 04:00:11;;;;;;;0.00;0.00;;;;;;;3.68;100.00;101997.22;5028031;28;20045;-78
2022/01/22 04:03:25;;;;;;;0.00;0.00;;;;;;;3.66;100.00;102003.81;5021590;28;20061;-78
2022/01/22 04:06:21;;;;;;;0.00;0.00;;;;;;;3.65;100.00;101988.72;5020162;28;20064;-77
2022/01/22 04:08:51;;;;;;;0.00;0.00;;;;;;;3.62;100.00;101992.66;5025069;28;20052;-79
2022/01/22 04:11:24;;;;;;;0.00;0.00;;;;;;;3.55;100.00;101991.78;5021976;28;20077;-78
2022/01/22 04:14:00;;;;;;;0.00;0.00;;;;;;;3.51;100.00;101979.78;5028088;28;20394;-77
2022/01/22 04:16:36;;;;;;;0.00;0.00;;;;;;;3.57;100.00;101993.22;5030512;28;20049;-77
2022/01/22 04:24:54;;;;;;;0.00;0.00;;;;;;;3.67;100.00;102013.56;5030672;28;20056;-77
2022/01/22 04:27:28;;;;;;;0.00;0.00;;;;;;;3.67;100.00;102010.88;5025752;28;20528;-77
2022/01/22 04:30:04;;;;;;;0.00;0.00;;;;;;;3.63;100.00;102018.50;5021143;28;20084;-77
2022/01/22 04:32:38;;;;;;;0.00;0.00;;;;;;;3.67;100.00;102018.97;5024753;28;20046;-79
2022/01/22 04:35:07;;;;;;;0.00;0.00;;;;;;;3.63;100.00;102017.69;5023937;28;20061;-77
2022/01/22 04:37:40;;;;;;;0.00;0.00;;;;;;;3.65;100.00;102027.25;5022009;28;20409;-78
2022/01/22 04:40:14;;;;;;;0.00;0.00;;;;;;;3.66;100.00;102028.06;5024918;28;20522;-78
2022/01/22 04:42:47;;;;;;;0.00;0.00;;;;;;;3.62;100.00;102016.88;5027856;28;20493;-77
2022/01/22 04:45:29;;;;;;;0.00;0.00;;;;;;;3.65;100.00;102021.03;5024430;28;20050;-77
2022/01/22 04:48:23;;;;;;;0.00;0.00;;;;;;;3.60;100.00;102013.53;5025787;28;20529;-78
2022/01/22 04:56:35;;;;;;;0.00;0.00;;;;;;;3.70;100.00;102026.63;5029116;28;20503;-75
2022/01/22 04:59:09;;;;;;;0.00;0.00;;;;;;;3.67;100.00;102027.84;5026265;28;20057;-78
2022/01/22 05:01:44;;;;;;;0.00;0.00;;;;;;;3.65;100.00;102029.13;5023724;28;20536;-77
2022/01/22 05:04:26;;;;;;;0.00;0.00;;;;;;;3.65;100.00;102032.63;5026977;28;20058;-77
2022/01/22 05:07:15;;;;;;;0.00;0.00;;;;;;;3.58;100.00;102015.63;5024573;28;20260;-78
2022/01/22 05:10:08;;;;;;;0.00;0.00;;;;;;;3.60;100.00;102026.19;5023857;28;20045;-78
2022/01/22 05:12:43;;;;;;;0.00;0.00;;;;;;;3.60;100.00;102037.75;5021890;28;20383;-78
2022/01/22 05:15:12;;;;;;;0.00;0.00;;;;;;;3.61;100.00;102038.63;5028214;28;20041;-79
2022/01/22 05:17:47;;;;;;;0.00;0.00;;;;;;;3.61;100.00;102039.44;5023124;28;20061;-77
2022/01/22 05:20:25;;;;;;;0.00;0.00;;;;;;;3.62;100.00;102027.66;5029780;28;20057;-77
2022/01/22 05:23:08;;;;;;;0.00;0.00;;;;;;;3.58;100.00;102032.59;5029857;28;20055;-79
2022/01/22 05:25:46;;;;;;;0.00;0.00;;;;;;;3.59;100.00;102036.13;5038890;28;20056;-78
2022/01/22 05:31:43;;;;;;;0.00;0.00;;;;;;;3.57;100.00;102030.09;5022772;28;20052;-79
2022/01/22 05:37:43;;;;;;;0.00;0.00;;;;;;;3.57;100.00;102041.69;5024401;28;20068;-78
2022/01/22 05:40:12;;;;;;;0.00;0.00;;;;;;;3.55;100.00;102041.06;5026959;28;20057;-77
2022/01/22 05:42:40;;;;;;;0.00;0.00;;;;;;;3.56;100.00;102047.28;5033894;28;20052;-77
2022/01/22 05:45:14;;;;;;;0.00;0.00;;;;;;;3.55;100.00;102049.16;5025597;28;20046;-77
2022/01/22 05:47:44;;;;;;;0.00;0.00;;;;;;;3.58;100.00;102058.69;5020708;28;20056;-79
2022/01/22 05:50:26;;;;;;;0.00;0.00;;;;;;;3.62;100.00;102053.72;5018463;28;20057;-77
2022/01/22 05:53:03;;;;;;;0.05;0.05;;;;;;;3.59;100.00;102057.66;5019002;28;20056;-77
2022/01/22 06:01:19;;;;;;;0.00;0.00;;;;;;;3.64;100.00;102070.50;5028936;28;20057;-77
2022/01/22 06:04:04;;;;;;;0.00;0.00;;;;;;;3.60;100.00;102062.00;5018515;28;20072;-76
2022/01/22 06:06:34;;;;;;;0.00;0.00;;;;;;;3.58;100.00;102059.50;5016414;28;20053;-78
2022/01/22 06:09:10;;;;;;;0.00;0.00;;;;;;;3.65;100.00;102064.94;5015835;28;20050;-77
2022/01/22 06:11:53;;;;;;;0.00;0.00;;;;;;;3.64;100.00;102067.81;5021586;28;20498;-77
2022/01/22 06:14:27;;;;;;;0.00;0.00;;;;;;;3.57;100.00;102065.91;5024210;28;20057;-78
2022/01/22 06:17:00;;;;;;;0.00;0.00;;;;;;;3.61;100.00;102068.22;5022028;28;20054;-76
2022/01/22 06:19:51;;;;;;;0.00;0.00;;;;;;;3.57;100.00;102075.84;5020730;28;20049;-77
2022/01/22 06:22:25;;;;;;;0.00;0.00;;;;;;;3.55;100.00;102078.75;5019618;28;20415;-78
2022/01/22 06:24:59;;;;;;;0.00;0.00;;;;;;;3.55;100.00;102081.44;5032608;28;20402;-77
2022/01/22 06:27:32;;;;;;;0.00;0.00;;;;;;;3.55;100.00;102078.75;5021611;28;20054;-78
2022/01/22 06:30:07;;;;;;;0.00;0.00;;;;;;;3.53;100.00;102086.19;5024793;28;20743;-77
2022/01/22 06:32:47;;;;;;;0.00;0.00;;;;;;;3.48;100.00;102083.28;5021543;28;20496;-77
2022/01/22 06:35:21;;;;;;;0.00;0.00;;;;;;;3.45;100.00;102082.81;5037117;28;20425;-78
2022/01/22 06:37:59;;;;;;;0.00;0.00;;;;;;;3.46;100.00;102098.78;5024381;28;20038;-77
2022/01/22 06:43:55;;;;;;;0.00;0.00;;;;;;;3.48;100.00;102106.66;5027776;28;20041;-77
2022/01/22 06:46:45;;;;;;;0.00;0.00;;;;;;;3.48;100.00;102106.66;5018291;28;20052;-78
2022/01/22 06:49:37;;;;;;;0.00;0.00;;;;;;;3.47;100.00;102100.44;5018955;28;20060;-78
2022/01/22 06:52:18;;;;;;;0.00;0.00;;;;;;;3.51;100.00;102108.97;5021199;28;20050;-78
2022/01/22 06:54:57;;;;;;;0.00;0.00;;;;;;;3.50;100.00;102104.59;5023460;28;20263;-78
2022/01/22 06:57:31;;;;;;;0.00;0.00;;;;;;;3.51;100.00;102096.31;5022920;28;20057;-78
2022/01/22 07:00:09;;;;;;;0.00;0.00;;;;;;;3.54;100.00;102106.69;5024910;28;20505;-80
2022/01/22 07:02:55;;;;;;;0.00;0.00;;;;;;;3.51;100.00;102108.97;5020846;28;20046;-77
2022/01/22 07:05:24;;;;;;;0.00;0.00;;;;;;;3.50;100.00;102110.00;5021613;28;20082;-77
2022/01/22 07:08:07;;;;;;;0.00;0.00;;;;;;;3.49;100.00;102119.09;5017169;28;20069;-78
2022/01/22 07:10:41;;;;;;;0.00;0.00;;;;;;;3.52;100.00;102111.47;5022887;28;20682;-77
2022/01/22 07:13:09;;;;;;;0.00;0.00;;;;;;;3.51;100.00;102115.16;5020505;28;20041;-79
2022/01/22 07:15:44;;;;;;;0.00;0.00;;;;;;;3.54;100.00;102124.72;5041539;28;20049;-77
2022/01/22 07:18:21;;;;;;;0.00;0.00;;;;;;;3.56;100.00;102128.03;5019844;28;20045;-80
2022/01/22 07:20:54;;;;;;;0.00;0.00;;;;;;;3.58;100.00;102125.97;5022022;28;20477;-78
2022/01/22 07:23:55;;;;;;;0.00;0.00;;;;;;;3.59;100.00;102127.66;5016325;28;20057;-77
2022/01/22 07:26:31;;;;;;;0.00;0.00;;;;;;;3.60;100.00;102128.47;5021337;28;20045;-78
2022/01/22 07:29:19;;;;;;;0.00;0.00;;;;;;;3.57;100.00;102130.50;5021756;28;20058;-79
2022/01/22 07:31:53;;;;;;;0.00;0.00;;;;;;;3.64;100.00;102133.25;5023439;28;20782;-77
2022/01/22 07:34:26;;;;;;;0.00;0.00;;;;;;;3.62;100.00;102127.25;5027174;28;20053;-77
2022/01/22 07:37:12;;;;;;;0.00;0.00;;;;;;;3.64;100.00;102132.44;5023019;28;20072;-78
2022/01/22 07:39:45;;;;;;;0.00;0.00;;;;;;;3.60;100.00;102126.59;5026795;28;20521;-76
2022/01/22 07:42:40;;;;;;;0.00;0.00;;;;;;;3.67;100.00;102135.53;5030491;28;20064;-78
2022/01/22 07:45:32;;;;;;;0.00;0.00;;;;;;;3.63;100.00;102128.06;5031335;28;20053;-76
2022/01/22 07:48:09;;;;;;;0.00;0.00;;;;;;;3.65;100.00;102134.94;5016248;28;20057;-76
2022/01/22 07:51:12;;;;;;;0.00;0.00;;;;;;;3.69;100.00;102138.88;5018988;28;20116;-77
2022/01/22 07:53:44;;;;;;;0.00;0.00;;;;;;;3.71;100.00;102141.38;5022996;28;20053;-76
2022/01/22 07:56:21;;;;;;;0.00;0.00;;;;;;;3.72;100.00;102153.81;5024659;28;20045;-76
2022/01/22 07:58:57;;;;;;;0.00;0.00;;;;;;;3.74;100.00;102139.13;5021896;28;20053;-77
2022/01/22 08:01:34;;;;;;;0.00;0.00;;;;;;;3.77;100.00;102146.00;5024923;28;20076;-77
2022/01/22 08:04:26;;;;;;;0.00;0.00;;;;;;;3.79;100.00;102145.78;5023491;28;20533;-79
2022/01/22 08:07:25;;;;;;;0.00;0.00;;;;;;;3.75;100.00;102156.94;4997764;28;20545;-77
2022/01/22 08:10:24;;;;;;;0.00;0.00;;;;;;;3.76;100.00;102155.09;5024635;28;20777;-77
2022/01/22 08:12:57;;;;;;;0.00;0.00;;;;;;;3.77;100.00;102151.38;5029928;28;20049;-76
2022/01/22 08:15:32;;;;;;;0.00;0.00;;;;;;;3.79;100.00;102156.56;5031196;28;20444;-77
2022/01/22 08:18:07;;;;;;;0.00;0.00;;;;;;;3.72;100.00;102148.44;5024153;28;20050;-76
2022/01/22 08:20:41;;;;;;;0.05;0.00;;;;;;;3.79;100.00;102159.25;5020643;28;20108;-76
2022/01/22 08:23:33;;;;;;;0.00;0.00;;;;;;;3.81;100.00;102163.41;5027299;28;20060;-77
2022/01/22 08:26:36;;;;;;;0.00;0.00;;;;;;;3.77;100.00;102156.75;5024888;28;20049;-78
2022/01/22 08:29:18;;;;;;;0.00;0.00;;;;;;;3.83;100.00;102168.59;5027386;28;20055;-77
2022/01/22 08:32:04;;;;;;;0.00;0.00;;;;;;;3.85;100.00;102170.06;5020623;28;20075;-79
2022/01/22 08:37:23;;;;;;;0.00;0.00;;;;;;;3.90;100.00;102164.06;5023876;28;20053;-78
2022/01/22 08:39:57;;;;;;;0.00;0.00;;;;;;;3.89;100.00;102167.78;5029220;28;20053;-77
2022/01/22 08:42:30;;;;;;;0.00;0.00;;;;;;;3.90;100.00;102158.69;5030757;28;20405;-77
2022/01/22 08:45:04;;;;;;;0.05;0.05;;;;;;;3.90;100.00;102166.75;5021521;28;20057;-78
2022/01/22 08:47:40;;;;;;;0.00;0.00;;;;;;;3.93;100.00;102166.38;5026694;28;20054;-77
2022/01/22 08:50:14;;;;;;;0.00;0.00;;;;;;;3.95;100.00;102167.00;5024011;28;20049;-78
2022/01/22 08:52:43;;;;;;;0.00;0.00;;;;;;;4.00;100.00;102171.78;5024404;28;20052;-77
2022/01/22 08:55:16;;;;;;;0.03;0.03;;;;;;;3.99;100.00;102173.66;5024000;28;20049;-76
2022/01/22 08:57:51;;;;;;;0.00;0.00;;;;;;;4.03;100.00;102180.31;5026535;28;20060;-77
2022/01/22 09:00:47;;;;;;;0.00;0.00;;;;;;;4.08;100.00;102177.84;5026354;28;20418;-77
2022/01/22 09:03:29;;;;;;;0.00;0.00;;;;;;;4.07;100.00;102178.88;5023498;28;20388;-77
2022/01/22 09:06:21;;;;;;;0.00;0.00;;;;;;;4.11;100.00;102178.50;5027487;28;20060;-78
2022/01/22 09:09:09;;;;;;;0.00;0.00;;;;;;;4.16;100.00;102187.63;5024963;28;20702;-78
2022/01/22 09:11:56;;;;;;;0.00;0.00;;;;;;;4.18;100.00;102185.56;5023975;28;20065;-77
2022/01/22 09:14:42;;;;;;;0.00;0.00;;;;;;;4.21;100.00;102185.19;5026233;28;20053;-78
2022/01/22 09:17:16;;;;;;;0.00;0.00;;;;;;;4.24;100.00;102179.38;5026515;28;20049;-79
2022/01/22 09:19:47;;;;;;;0.00;0.00;;;;;;;4.28;100.00;102192.44;5023170;28;20510;-78
2022/01/22 09:22:20;;;;;;;0.10;0.10;;;;;;;4.32;100.00;102189.13;5021358;28;20054;-77
2022/01/22 09:24:52;;;;;;;0.00;0.00;;;;;;;4.35;100.00;102194.16;5017223;28;20057;-79
2022/01/22 09:27:26;;;;;;;0.00;0.00;;;;;;;4.35;100.00;102209.47;5019495;28;20046;-77
2022/01/22 09:29:55;;;;;;;0.00;0.00;;;;;;;4.38;100.00;102207.22;5023442;28;20545;-77
2022/01/22 09:32:29;;;;;;;0.00;0.00;;;;;;;4.43;100.00;102210.16;5024353;28;20065;-77
2022/01/22 09:35:02;;;;;;;0.00;0.00;;;;;;;4.41;100.00;102209.50;5022436;28;20050;-78
2022/01/22 09:37:58;;;;;;;0.00;0.00;;;;;;;4.53;100.00;102204.38;5008811;28;20057;-77
2022/01/22 09:41:07;;;;;;;0.00;0.00;;;;;;;4.54;100.00;102208.75;5020953;28;20058;-79
2022/01/22 09:43:57;;;;;;;0.00;0.00;;;;;;;4.52;100.00;102205.41;4999266;28;20069;-77
2022/01/22 09:46:30;;;;;;;0.00;0.00;;;;;;;4.51;100.00;102213.69;5018103;28;20049;-77
2022/01/22 09:49:17;;;;;;;0.00;0.00;;;;;;;4.53;100.00;102212.47;4999536;28;20053;-79
2022/01/22 09:52:25;;;;;;;0.00;0.00;;;;;;;4.66;100.00;102221.66;4991378;28;21436;-77
2022/01/22 09:55:18;;;;;;;0.00;0.00;;;;;;;4.54;100.00;102224.94;5022389;28;20068;-78
2022/01/22 09:57:58;;;;;;;0.00;0.00;;;;;;;4.61;100.00;102227.63;5009181;28;20068;-78
2022/01/22 10:00:54;;;;;;;0.00;0.00;;;;;;;4.59;100.00;102232.41;5004973;28;20066;-77
2022/01/22 10:03:39;;;;;;;0.00;0.00;;;;;;;4.62;100.00;102223.06;5008862;28;20541;-79
2022/01/22 10:06:50;;;;;;;0.00;0.00;;;;;;;4.66;100.00;102225.16;5005769;28;20642;-78
2022/01/22 10:09:57;;;;;;;0.00;0.00;;;;;;;4.68;100.00;102223.09;5015894;28;20406;-79
2022/01/22 10:12:44;;;;;;;0.00;0.00;;;;;;;4.73;100.00;102225.19;5017564;28;20401;-78
2022/01/22 10:15:35;;;;;;;0.00;0.00;;;;;;;4.66;100.00;102230.56;5014363;28;20061;-78
2022/01/22 10:18:20;;;;;;;0.00;0.00;;;;;;;4.72;100.00;102218.13;5004243;28;20057;-78
2022/01/22 10:20:53;;;;;;;0.00;0.00;;;;;;;4.72;100.00;102208.19;5008236;28;20064;-78
2022/01/22 10:23:26;;;;;;;0.00;0.00;;;;;;;4.74;100.00;102219.59;5026403;28;20069;-79
2022/01/22 10:26:03;;;;;;;0.00;0.00;;;;;;;4.65;100.00;102215.41;5009715;28;20421;-78
2022/01/22 10:28:43;;;;;;;0.00;0.00;;;;;;;4.67;100.00;102225.97;5006333;28;20060;-79
2022/01/22 10:31:21;;;;;;;0.00;0.00;;;;;;;4.76;100.00;102220.22;5006018;28;20053;-78
2022/01/22 10:34:13;;;;;;;0.05;0.05;;;;;;;4.71;100.00;102216.44;5015084;28;20607;-78
2022/01/22 10:37:05;;;;;;;0.00;0.00;;;;;;;4.85;100.00;102215.47;5017823;28;20069;-78
2022/01/22 10:39:46;;;;;;;0.00;0.00;;;;;;;4.87;100.00;102209.88;5010173;28;20049;-79
2022/01/22 10:42:23;;;;;;;0.00;0.00;;;;;;;4.91;100.00;102222.75;5010978;28;20064;-78
2022/01/22 10:45:00;;;;;;;0.10;0.10;;;;;;;4.96;100.00;102219.44;5009190;28;20060;-79
2022/01/22 10:47:29;;;;;;;0.05;0.05;;;;;;;5.04;100.00;102211.16;5005335;28;20053;-79
2022/01/22 10:50:17;;;;;;;0.00;0.00;;;;;;;5.09;100.00;102227.53;5002734;28;20069;-77
2022/01/22 10:52:51;;;;;;;0.00;0.00;;;;;;;5.12;100.00;102215.50;5005504;28;20181;-78
2022/01/22 10:55:24;;;;;;;0.00;0.00;;;;;;;5.18;100.00;102230.06;5008574;28;20064;-79
2022/01/22 10:58:10;;;;;;;0.00;0.00;;;;;;;5.21;100.00;102230.47;5012755;28;20048;-77
2022/01/22 11:00:38;;;;;;;0.00;0.00;;;;;;;5.23;100.00;102235.66;5010556;28;20378;-77
2022/01/22 11:03:21;;;;;;;0.00;0.00;;;;;;;5.29;100.00;102226.78;5010788;28;20057;-78
2022/01/22 11:05:54;;;;;;;0.00;0.00;;;;;;;5.27;100.00;102224.28;5008155;28;20041;-79
2022/01/22 11:08:22;;;;;;;0.00;0.00;;;;;;;5.19;100.00;102234.41;5007156;28;20869;-78
2022/01/22 11:10:56;;;;;;;0.10;0.10;;;;;;;5.08;100.00;102230.44;5010201;28;20147;-78
2022/01/22 11:13:30;;;;;;;0.00;0.00;;;;;;;5.09;100.00;102234.81;5012261;28;20053;-78
2022/01/22 11:16:05;;;;;;;0.00;0.00;;;;;;;5.03;100.00;102228.38;5009036;28;20056;-78
2022/01/22 11:18:34;;;;;;;0.00;0.00;;;;;;;4.97;100.00;102217.56;5007376;28;20049;-79
2022/01/22 11:21:03;;;;;;;0.00;0.00;;;;;;;4.87;100.00;102226.88;5013022;28;20049;-78
2022/01/22 11:23:36;;;;;;;0.08;0.08;;;;;;;4.89;100.00;102232.91;5010020;28;20060;-77
2022/01/22 11:26:10;;;;;;;0.03;0.03;;;;;;;4.88;100.00;102228.53;5010911;28;20049;-78
2022/01/22 11:28:41;;;;;;;0.00;0.00;;;;;;;4.94;100.00;102232.28;5011286;28;20057;-78
2022/01/22 11:31:17;;;;;;;0.00;0.00;;;;;;;5.03;100.00;102228.38;5007768;28;20750;-78
2022/01/22 11:33:47;;;;;;;0.00;0.00;;;;;;;5.09;100.00;102226.72;5008019;28;20049;-77
2022/01/22 11:36:25;;;;;;;0.00;0.00;;;;;;;5.18;100.00;102228.19;5009250;28;20058;-78
2022/01/22 11:39:00;;;;;;;0.10;0.10;;;;;;;5.13;100.00;102214.47;5013520;28;20038;-76
2022/01/22 11:41:33;;;;;;;0.00;0.00;;;;;;;5.23;100.00;102220.31;5008887;28;20041;-77
2022/01/22 11:44:11;;;;;;;0.00;0.00;;;;;;;5.28;100.00;102220.53;5026913;28;20065;-77
2022/01/22 11:46:52;;;;;;;0.00;0.00;;;;;;;5.31;100.00;102231.97;5009942;28;20104;-78
2022/01/22 11:49:28;;;;;;;0.00;0.00;;;;;;;5.37;100.00;102229.25;5007272;28;20061;-78
2022/01/22 11:52:22;;;;;;;0.10;0.10;;;;;;;5.39;100.00;102242.56;5008027;28;20053;-78
2022/01/22 11:54:57;;;;;;;0.00;0.00;;;;;;;5.47;100.00;102233.41;5007591;28;20065;-76
2022/01/22 11:57:32;;;;;;;0.05;0.05;;;;;;;5.42;100.00;102239.44;5006447;28;20122;-77
2022/01/22 12:00:23;;;;;;;0.10;0.10;;;;;;;5.49;100.00;102229.47;5011418;28;20045;-77
2022/01/22 12:03:19;;;;;;;0.00;0.00;;;;;;;5.50;100.00;102239.22;5010383;28;20068;-78
2022/01/22 12:06:06;;;;;;;0.07;0.07;;;;;;;5.53;100.00;102230.72;5006118;28;21043;-79
2022/01/22 12:09:09;;;;;;;0.00;0.00;;;;;;;5.64;100.00;102239.25;5005388;28;20735;-78
2022/01/22 12:14:59;;;;;;;0.00;0.00;;;;;;;5.58;100.00;102240.91;5007139;28;20058;-78
2022/01/22 12:17:54;;;;;;;;;;;;;;;5.55;100.00;102238.59;4993926;28;20061;-77
2022/01/22 12:21:30;;;;;;;0.00;0.00;;;;;;;5.57;100.00;102247.34;5005581;28;19925;-77
2022/01/22 12:23:53;;;;;;;0.08;0.08;;;;;;;5.57;100.00;102240.06;5006796;28;20049;-76
2022/01/22 12:26:47;;;;;;;0.00;0.00;;;;;;;5.69;100.00;102252.94;5006025;28;20061;-78
2022/01/22 12:29:29;;;;;;;0.00;0.00;;;;;;;5.62;100.00;102245.69;5005301;28;20053;-78
2022/01/22 12:32:08;;;;;;;0.00;0.00;;;;;;;5.58;100.00;102240.91;5007188;28;20529;-78
2022/01/22 12:35:04;;;;;;;0.03;0.03;;;;;;;5.53;100.00;102232.59;5007209;28;20054;-78
2022/01/22 12:37:47;;;;;;;0.08;0.08;;;;;;;5.44;100.00;102234.66;5012127;28;20038;-76
2022/01/22 12:40:27;;;;;;;;;;;;;;;5.54;100.00;102240.47;5007005;28;20053;-78
2022/01/22 12:43:06;;;;;;;0.10;0.10;;;;;;;5.55;100.00;102231.34;5003675;28;19936;-78
2022/01/22 12:45:43;;;;;;;0.05;0.05;;;;;;;5.45;100.00;102231.75;5003867;28;20056;-78
2022/01/22 12:48:16;;;;;;;0.00;0.00;;;;;;;5.44;100.00;102235.50;5004579;28;20057;-78
2022/01/22 12:50:49;;;;;;;0.05;0.05;;;;;;;5.52;100.00;102239.03;5009432;28;20037;-77
2022/01/22 12:53:24;;;;;;;0.10;0.10;;;;;;;5.49;100.00;102224.06;5003638;28;20079;-78
2022/01/22 12:58:42;;;;;;;0.08;0.08;;;;;;;5.51;100.00;102221.16;5006513;28;20494;-78
2022/01/22 13:01:21;;;;;;;0.10;0.10;;;;;;;5.55;100.00;102233.19;5008600;28;20057;-78
2022/01/22 13:03:55;;;;;;;0.10;0.10;;;;;;;5.62;100.00;102228.63;5009592;28;20049;-79
2022/01/22 13:06:39;;;;;;;0.10;0.10;;;;;;;5.57;100.00;102225.72;5006809;28;20061;-77
2022/01/22 13:09:43;;;;;;;0.00;0.00;;;;;;;5.54;100.00;102224.28;5015332;28;20142;-78
2022/01/22 13:12:17;;;;;;;0.00;0.00;;;;;;;5.60;100.00;102226.13;5015318;28;20064;-78
2022/01/22 13:14:55;;;;;;;0.00;0.00;;;;;;;5.60;100.00;102209.94;5006638;28;20049;-79
2022/01/22 13:17:30;;;;;;;0.10;0.10;;;;;;;5.68;100.00;102226.97;5007935;28;20053;-78
2022/01/22 13:20:05;;;;;;;0.10;0.10;;;;;;;5.59;100.00;102219.09;5008717;28;20044;-77
2022/01/22 13:22:40;;;;;;;0.03;0.03;;;;;;;5.65;100.00;102214.72;5008591;28;20060;-76
2022/01/22 13:25:16;;;;;;;0.10;0.10;;;;;;;5.74;100.00;102215.31;5007991;28;20053;-78
2022/01/22 13:28:01;;;;;;;0.10;0.10;;;;;;;5.71;100.00;102218.44;5011642;28;20600;-77
2022/01/22 13:30:40;;;;;;;0.00;0.00;;;;;;;5.70;100.00;102225.72;5008300;28;20072;-78